Time;durP1;ratioP1;P1;durP2;ratioP2;P2;SDS_P1;SDS_P2;PMS_P1;PMS_P2;Temp;Humidity;BMP_temperature;BMP_pressure;BME280_temperature;BME280_humidity;BME280_pressure;Samples;Min_cycle;Max_cycle;Signal;HPM_P1;HPM_P2
2021/12/04 00:00:08;;;;;;;10.50;8.35;;;3.60;99.90;;;;;;5052543;28;20200;-47
2021/12/04 00:02:39;;;;;;;12.23;9.23;;;3.60;99.90;;;;;;5052636;28;20219;-48
2021/12/04 00:05:07;;;;;;;11.80;8.63;;;4.10;99.90;;;;;;5052966;28;20188;-47
2021/12/04 00:07:36;;;;;;;13.43;9.05;;;3.50;99.90;;;;;;5052854;28;20257;-48
2021/12/04 00:10:04;;;;;;;9.77;8.80;;;3.30;99.90;;;;;;5052696;28;20204;-48
2021/12/04 00:12:32;;;;;;;13.82;8.57;;;3.90;99.90;;;;;;5051497;28;20227;-48
2021/12/04 00:14:59;;;;;;;12.95;8.95;;;3.80;99.90;;;;;;5052586;28;20231;-47
2021/12/04 00:17:27;;;;;;;14.27;8.65;;;3.30;99.90;;;;;;5052133;28;20653;-47
2021/12/04 00:19:54;;;;;;;16.42;7.60;;;3.40;99.90;;;;;;5052342;28;20192;-48
2021/12/04 00:22:21;;;;;;;10.20;8.88;;;4.10;99.90;;;;;;5052830;28;20220;-47
2021/12/04 00:24:48;;;;;;;13.43;8.05;;;3.70;99.90;;;;;;5052565;28;20200;-48
2021/12/04 00:27:15;;;;;;;11.23;9.00;;;3.70;99.90;;;;;;5056372;28;20283;-47
2021/12/04 00:29:41;;;;;;;11.57;7.88;;;3.90;99.90;;;;;;5052084;28;20200;-47
2021/12/04 00:32:12;;;;;;;11.60;8.30;;;3.60;99.90;;;;;;5052155;28;20256;-47
2021/12/04 00:34:42;;;;;;;11.85;9.75;;;3.80;99.90;;;;;;5052422;28;20223;-48
2021/12/04 00:37:36;;;;;;;9.30;8.30;;;3.70;99.90;;;;;;5052584;28;20223;-48
2021/12/04 00:51:01;;;;;;;9.70;8.68;;;4.00;99.90;;;;;;5052518;28;20556;-46
2021/12/04 00:53:28;;;;;;;9.07;7.97;;;4.20;99.90;;;;;;5051886;28;20227;-46
2021/12/04 00:55:55;;;;;;;13.38;9.48;;;3.30;99.90;;;;;;5051966;28;20685;-48
2021/12/04 00:58:21;;;;;;;13.63;8.60;;;3.90;99.90;;;;;;5051676;28;20672;-47
2021/12/04 01:00:48;;;;;;;11.98;8.52;;;3.90;99.90;;;;;;5051749;28;20765;-47
2021/12/04 01:03:14;;;;;;;15.55;9.45;;;4.10;99.90;;;;;;5051909;28;20231;-46
2021/12/04 01:05:41;;;;;;;12.27;8.73;;;3.70;99.90;;;;;;5051873;28;20211;-48
2021/12/04 01:08:09;;;;;;;11.07;8.73;;;3.20;99.90;;;;;;5051473;28;20192;-45
2021/12/04 01:10:36;;;;;;;9.13;8.15;;;3.70;99.90;;;;;;5051581;28;20207;-47
2021/12/04 01:13:06;;;;;;;10.23;9.13;;;3.70;99.90;;;;;;5051724;28;20700;-46
2021/12/04 01:15:33;;;;;;;10.68;9.20;;;3.80;99.90;;;;;;5051677;28;20219;-47
2021/12/04 01:17:59;;;;;;;13.57;9.25;;;3.70;99.90;;;;;;5051375;28;20578;-48
2021/12/04 01:20:26;;;;;;;11.57;8.98;;;3.80;99.90;;;;;;5051978;28;20196;-47
2021/12/04 01:22:53;;;;;;;10.40;9.02;;;4.00;99.90;;;;;;5051478;28;20223;-46
2021/12/04 01:25:21;;;;;;;13.48;8.80;;;4.10;99.90;;;;;;5054532;28;20664;-48
2021/12/04 01:27:47;;;;;;;13.15;8.85;;;3.90;99.90;;;;;;5051278;28;20207;-49
2021/12/04 01:30:14;;;;;;;10.98;9.05;;;4.00;99.90;;;;;;5051264;28;20230;-46
2021/12/04 01:32:41;;;;;;;15.73;8.65;;;4.00;99.90;;;;;;5050970;28;20246;-46
2021/12/04 01:35:08;;;;;;;14.13;10.88;;;3.50;99.90;;;;;;5051258;28;20195;-47
2021/12/04 01:37:35;;;;;;;11.90;9.40;;;3.80;99.90;;;;;;5051348;28;20219;-47
2021/12/04 01:40:02;;;;;;;12.30;8.77;;;3.90;99.90;;;;;;5050931;28;20204;-47
2021/12/04 01:42:32;;;;;;;11.90;10.48;;;4.00;99.90;;;;;;5051259;28;20218;-46
2021/12/04 01:44:59;;;;;;;10.98;9.80;;;3.80;99.90;;;;;;5051457;28;20210;-46
2021/12/04 01:47:25;;;;;;;10.85;9.50;;;4.00;99.90;;;;;;5051858;28;20223;-49
2021/12/04 01:49:54;;;;;;;9.80;8.90;;;3.30;99.90;;;;;;5051309;28;20192;-50
2021/12/04 01:52:21;;;;;;;10.85;9.65;;;3.30;99.90;;;;;;5051554;28;20220;-48
2021/12/04 01:54:50;;;;;;;15.32;10.18;;;3.50;99.90;;;;;;5051614;28;20191;-48
2021/12/04 01:57:17;;;;;;;10.60;9.13;;;3.50;99.90;;;;;;5051324;28;20230;-50
2021/12/04 01:59:45;;;;;;;16.35;10.27;;;3.80;99.90;;;;;;5051304;28;20215;-50
2021/12/04 02:02:12;;;;;;;11.57;9.05;;;3.80;99.90;;;;;;5049872;28;20219;-49
2021/12/04 02:04:39;;;;;;;14.18;10.75;;;3.80;99.90;;;;;;5051360;28;20192;-49
2021/12/04 02:07:07;;;;;;;12.35;9.52;;;3.70;99.90;;;;;;5051191;28;20192;-49
2021/12/04 02:09:35;;;;;;;11.05;9.82;;;3.70;99.90;;;;;;5050766;28;20266;-49
2021/12/04 02:12:05;;;;;;;13.40;9.65;;;3.80;99.90;;;;;;5050025;28;20224;-48
2021/12/04 02:14:32;;;;;;;11.57;10.38;;;3.70;99.90;;;;;;5051689;28;20204;-50
2021/12/04 02:17:00;;;;;;;12.13;9.70;;;3.50;99.90;;;;;;5051209;28;20696;-50
2021/12/04 02:19:27;;;;;;;10.77;9.40;;;4.30;99.90;;;;;;5050731;28;20207;-50
2021/12/04 02:21:55;;;;;;;12.02;8.85;;;3.80;99.90;;;;;;5051155;28;20223;-49
2021/12/04 02:24:22;;;;;;;11.73;9.52;;;3.80;99.90;;;;;;5051187;28;20204;-49
2021/12/04 02:26:50;;;;;;;12.40;10.48;;;3.40;99.90;;;;;;5054969;28;20661;-49
2021/12/04 02:29:18;;;;;;;12.13;10.82;;;4.00;99.90;;;;;;5050805;28;20196;-50
2021/12/04 02:31:47;;;;;;;11.60;10.30;;;3.90;99.90;;;;;;5050860;28;20212;-49
2021/12/04 02:34:19;;;;;;;13.30;9.75;;;3.70;99.90;;;;;;5050910;28;20200;-49
2021/12/04 02:36:46;;;;;;;11.65;9.55;;;3.30;99.90;;;;;;5051071;28;20700;-49
2021/12/04 02:39:23;;;;;;;16.27;10.48;;;3.50;99.90;;;;;;5050771;28;20192;-49
2021/12/04 02:41:49;;;;;;;11.68;10.32;;;3.70;99.90;;;;;;5053751;28;20216;-50
2021/12/04 02:44:16;;;;;;;14.30;10.50;;;4.00;99.90;;;;;;5054772;28;20570;-49
2021/12/04 02:46:43;;;;;;;13.50;10.35;;;4.00;99.90;;;;;;5054609;28;20680;-50
2021/12/04 02:49:12;;;;;;;13.73;9.95;;;3.90;99.90;;;;;;5054558;28;20202;-50
2021/12/04 02:51:39;;;;;;;13.20;9.70;;;3.90;99.90;;;;;;5054638;28;20287;-50
2021/12/04 02:54:06;;;;;;;14.35;11.43;;;4.00;99.90;;;;;;5054683;28;20587;-48
2021/12/04 02:56:34;;;;;;;11.30;9.90;;;3.90;99.90;;;;;;5054389;28;20223;-49
2021/12/04 02:59:03;;;;;;;12.30;9.45;;;4.30;99.90;;;;;;5052785;28;20223;-49
2021/12/04 03:01:30;;;;;;;13.00;10.63;;;4.00;99.90;;;;;;5054263;28;20220;-49
2021/12/04 03:04:06;;;;;;;15.68;10.25;;;4.40;99.90;;;;;;5054629;28;20582;-49
2021/12/04 03:06:38;;;;;;;10.95;9.82;;;3.90;99.90;;;;;;5055044;28;20192;-49
2021/12/04 03:09:05;;;;;;;13.07;10.13;;;4.20;99.90;;;;;;5054163;28;20269;-49
2021/12/04 03:11:33;;;;;;;13.13;10.85;;;4.00;99.90;;;;;;5054208;28;20255;-49
2021/12/04 03:14:00;;;;;;;13.68;10.85;;;3.70;99.90;;;;;;5054507;28;20227;-49
2021/12/04 03:16:27;;;;;;;10.93;9.80;;;3.90;99.90;;;;;;5054157;28;20216;-49
2021/12/04 03:18:53;;;;;;;12.07;10.23;;;3.80;99.90;;;;;;5054344;28;20192;-49
2021/12/04 03:21:20;;;;;;;15.05;11.40;;;4.00;99.90;;;;;;5054243;28;20200;-48
2021/12/04 03:23:53;;;;;;;12.45;10.68;;;3.70;99.90;;;;;;5054439;28;20196;-48
2021/12/04 03:26:20;;;;;;;13.43;10.50;;;4.10;99.90;;;;;;5060948;28;20200;-49
2021/12/04 03:28:49;;;;;;;13.38;11.07;;;4.00;99.90;;;;;;5055865;28;20196;-49
2021/12/04 03:31:19;;;;;;;11.00;9.65;;;3.50;99.90;;;;;;5053884;28;20706;-49
2021/12/04 03:41:59;;;;;;;14.38;10.82;;;4.10;99.90;;;;;;5053945;28;20243;-49
2021/12/04 03:44:27;;;;;;;14.65;10.35;;;4.20;99.90;;;;;;5054211;28;20191;-49
2021/12/04 03:46:54;;;;;;;13.10;11.38;;;4.40;99.90;;;;;;5054028;28;20184;-49
2021/12/04 03:49:21;;;;;;;15.00;12.05;;;4.00;99.90;;;;;;5053112;28;20200;-49
2021/12/04 03:51:47;;;;;;;15.43;11.93;;;4.00;99.90;;;;;;5053554;28;20216;-49
2021/12/04 03:54:14;;;;;;;12.75;11.45;;;4.20;99.90;;;;;;5053691;28;20665;-50
2021/12/04 03:56:40;;;;;;;12.35;10.68;;;4.00;99.90;;;;;;5053530;28;20637;-49
2021/12/04 03:59:08;;;;;;;11.98;10.23;;;3.50;99.90;;;;;;5053296;28;20207;-50
2021/12/04 04:01:36;;;;;;;14.82;10.55;;;4.20;99.90;;;;;;5053099;28;20224;-49
2021/12/04 04:04:03;;;;;;;13.50;11.23;;;4.00;99.90;;;;;;5071473;28;20207;-50
2021/12/04 04:06:29;;;;;;;11.98;10.43;;;4.00;99.90;;;;;;5072975;28;20199;-49
2021/12/04 04:08:56;;;;;;;15.40;12.07;;;3.90;99.90;;;;;;5072870;28;20664;-49
2021/12/04 04:11:22;;;;;;;12.30;10.50;;;4.60;99.90;;;;;;5073160;28;20700;-49
2021/12/04 04:13:49;;;;;;;17.30;11.85;;;4.10;99.90;;;;;;5073258;28;20555;-50
2021/12/04 04:16:16;;;;;;;15.07;11.40;;;4.30;99.90;;;;;;5071800;28;20207;-49
2021/12/04 04:18:43;;;;;;;16.27;11.60;;;3.80;99.90;;;;;;5072535;28;20683;-50
2021/12/04 04:21:10;;;;;;;13.80;10.75;;;4.20;99.90;;;;;;5072895;28;20203;-50
2021/12/04 04:23:37;;;;;;;16.35;11.13;;;4.00;99.90;;;;;;5073176;28;20574;-49
2021/12/04 04:26:04;;;;;;;12.00;10.70;;;4.10;99.90;;;;;;5067073;28;20640;-49
2021/12/04 04:28:31;;;;;;;13.45;10.38;;;4.20;99.90;;;;;;5052772;28;20196;-49
2021/12/04 04:30:57;;;;;;;15.80;10.98;;;4.50;99.90;;;;;;5053204;28;20199;-49
2021/12/04 04:33:24;;;;;;;15.23;11.13;;;4.30;99.90;;;;;;5052447;28;20696;-50
2021/12/04 04:36:05;;;;;;;13.57;10.90;;;4.30;99.90;;;;;;5052795;28;20203;-49
2021/12/04 04:38:39;;;;;;;14.60;11.85;;;4.70;99.90;;;;;;5052571;28;20226;-49
2021/12/04 04:58:00;;;;;;;17.13;11.85;;;4.80;99.90;;;;;;5052062;28;20215;-49
2021/12/04 05:00:46;;;;;;;17.83;12.63;;;4.50;99.90;;;;;;5052879;28;20196;-49
2021/12/04 05:11:35;;;;;;;14.25;12.80;;;4.70;99.90;;;;;;5050890;28;20401;-49
2021/12/04 05:14:04;;;;;;;12.48;10.77;;;4.10;99.90;;;;;;5052202;28;20287;-49
2021/12/04 05:16:41;;;;;;;18.95;13.00;;;4.40;99.90;;;;;;5051727;28;20692;-50
2021/12/04 05:19:24;;;;;;;14.75;12.25;;;4.40;99.90;;;;;;5051724;28;20204;-49
2021/12/04 05:21:51;;;;;;;18.42;11.77;;;4.20;99.90;;;;;;5052236;28;20222;-51
2021/12/04 05:24:18;;;;;;;14.73;12.98;;;4.00;99.90;;;;;;5051734;28;20195;-50
2021/12/04 05:26:45;;;;;;;15.45;12.35;;;4.20;99.90;;;;;;5055385;28;20571;-50
2021/12/04 05:29:12;;;;;;;14.52;12.48;;;4.40;99.90;;;;;;5051745;28;20207;-50
2021/12/04 05:31:38;;;;;;;16.52;13.10;;;4.40;99.90;;;;;;5051418;28;20697;-50
2021/12/04 05:34:05;;;;;;;16.75;12.07;;;4.10;99.90;;;;;;5051721;28;20303;-50
2021/12/04 05:36:32;;;;;;;15.13;12.70;;;4.20;99.90;;;;;;5051584;28;20206;-48
2021/12/04 05:38:59;;;;;;;14.18;11.48;;;3.70;99.90;;;;;;5051447;28;20211;-49
2021/12/04 05:41:27;;;;;;;15.98;12.43;;;4.00;99.90;;;;;;5051996;28;20216;-50
2021/12/04 05:43:53;;;;;;;14.85;12.18;;;4.10;99.90;;;;;;5051719;28;20695;-51
2021/12/04 05:46:25;;;;;;;14.10;11.82;;;4.20;99.90;;;;;;5051583;28;20203;-50
2021/12/04 05:48:55;;;;;;;13.65;12.25;;;4.20;99.90;;;;;;5051681;28;20283;-50
2021/12/04 05:51:30;;;;;;;15.60;12.18;;;4.20;99.90;;;;;;5051970;28;20224;-50
2021/12/04 05:54:07;;;;;;;13.68;12.07;;;4.30;99.90;;;;;;5051711;28;20200;-49
2021/12/04 05:56:36;;;;;;;13.75;11.95;;;4.20;99.90;;;;;;5051956;28;20211;-50
2021/12/04 05:59:03;;;;;;;13.50;11.77;;;4.20;99.90;;;;;;5052039;28;20204;-50
2021/12/04 06:01:31;;;;;;;13.82;11.60;;;3.80;99.90;;;;;;5051778;28;20219;-49
2021/12/04 06:03:58;;;;;;;14.48;12.00;;;4.30;99.90;;;;;;5051396;28;20232;-51
2021/12/04 06:06:24;;;;;;;14.02;11.50;;;4.20;99.90;;;;;;5051337;28;20679;-49
2021/12/04 06:08:51;;;;;;;16.48;14.00;;;4.80;99.90;;;;;;5051047;28;20196;-50
2021/12/04 06:11:18;;;;;;;12.35;10.90;;;4.40;99.90;;;;;;5051476;28;20200;-50
2021/12/04 06:13:46;;;;;;;11.98;10.23;;;4.40;99.90;;;;;;5051346;28;20196;-50
2021/12/04 06:16:14;;;;;;;14.80;10.40;;;4.20;99.90;;;;;;5052952;28;20202;-49
2021/12/04 06:18:41;;;;;;;11.98;10.70;;;4.70;99.90;;;;;;5054647;28;20709;-49
2021/12/04 06:23:52;;;;;;;11.60;10.40;;;4.50;99.90;;;;;;5055055;28;20187;-49
2021/12/04 06:26:19;;;;;;;10.70;9.02;;;3.70;99.90;;;;;;5058603;28;20200;-49
2021/12/04 06:28:47;;;;;;;12.00;9.90;;;3.80;99.90;;;;;;5054743;28;20196;-50
2021/12/04 06:31:14;;;;;;;11.95;9.77;;;4.30;99.90;;;;;;5054785;28;20200;-49
2021/12/04 06:33:41;;;;;;;13.60;9.57;;;4.30;99.90;;;;;;5054846;28;20669;-49
2021/12/04 06:36:09;;;;;;;11.32;9.93;;;4.30;99.90;;;;;;5054938;28;20204;-49
2021/12/04 06:38:36;;;;;;;12.52;9.93;;;4.90;99.90;;;;;;5054263;28;20223;-49
2021/12/04 06:41:03;;;;;;;12.27;9.25;;;4.50;99.90;;;;;;5054833;28;20204;-49
2021/12/04 06:43:30;;;;;;;9.77;8.77;;;3.80;99.90;;;;;;5054538;28;20203;-49
2021/12/04 06:46:00;;;;;;;12.20;10.02;;;4.40;99.90;;;;;;5054916;28;20700;-49
2021/12/04 06:48:36;;;;;;;13.15;11.00;;;4.50;99.90;;;;;;5054371;28;20573;-50
2021/12/04 06:51:08;;;;;;;13.80;10.15;;;4.40;99.90;;;;;;5054848;28;20200;-49
2021/12/04 06:53:40;;;;;;;12.77;8.82;;;4.40;99.90;;;;;;5054461;28;20238;-49
2021/12/04 06:56:08;;;;;;;13.38;9.90;;;4.50;99.90;;;;;;5054361;28;20234;-49
2021/12/04 06:58:36;;;;;;;12.70;9.98;;;4.60;99.90;;;;;;5053629;28;20650;-49
2021/12/04 07:01:04;;;;;;;15.73;11.07;;;4.50;99.90;;;;;;5054585;28;20228;-49
2021/12/04 07:03:31;;;;;;;12.20;10.50;;;4.00;99.90;;;;;;5054282;28;20279;-49
2021/12/04 07:05:57;;;;;;;14.52;10.10;;;4.50;99.90;;;;;;5054354;28;20668;-49
2021/12/04 07:08:24;;;;;;;13.15;10.05;;;4.30;99.90;;;;;;5054110;28;20192;-50
2021/12/04 07:10:51;;;;;;;17.83;10.77;;;4.40;99.90;;;;;;5054524;28;20196;-49
2021/12/04 07:13:17;;;;;;;15.05;10.23;;;4.70;99.90;;;;;;5053847;28;20216;-49
2021/12/04 07:15:45;;;;;;;11.88;10.38;;;4.90;99.90;;;;;;5054249;28;20199;-49
2021/12/04 07:18:13;;;;;;;14.40;10.63;;;4.60;99.90;;;;;;5053744;28;20704;-49
2021/12/04 07:20:41;;;;;;;12.23;10.93;;;4.40;99.90;;;;;;5054199;28;20287;-49
2021/12/04 07:23:08;;;;;;;13.93;9.70;;;4.80;99.90;;;;;;5053999;28;20216;-49
2021/12/04 07:25:34;;;;;;;11.43;10.23;;;4.50;99.90;;;;;;5057659;28;20206;-49
2021/12/04 07:28:01;;;;;;;15.30;10.05;;;4.50;99.90;;;;;;5053114;28;20192;-49
2021/12/04 07:30:27;;;;;;;11.63;10.43;;;4.40;99.90;;;;;;5053772;28;20224;-49
2021/12/04 07:32:55;;;;;;;12.85;9.68;;;5.00;99.90;;;;;;5053729;28;20219;-49
2021/12/04 07:35:23;;;;;;;13.02;9.90;;;3.90;99.90;;;;;;5053874;28;20274;-49
2021/12/04 07:37:50;;;;;;;12.82;10.10;;;4.50;99.90;;;;;;5053306;28;20216;-49
2021/12/04 07:40:17;;;;;;;11.95;9.50;;;4.50;99.90;;;;;;5052533;28;20554;-49
2021/12/04 07:42:43;;;;;;;14.50;10.30;;;4.40;99.90;;;;;;5053294;28;20216;-50
2021/12/04 07:45:10;;;;;;;12.20;9.90;;;4.50;99.90;;;;;;5053341;28;20199;-49
2021/12/04 07:47:38;;;;;;;15.57;10.13;;;4.40;99.90;;;;;;5062783;23;20240;-50
2021/12/04 07:50:06;;;;;;;11.65;9.20;;;4.20;99.90;;;;;;5013098;28;20197;-50
2021/12/04 07:52:35;;;;;;;12.13;9.35;;;4.40;99.90;;;;;;5013688;28;20202;-50
2021/12/04 07:55:02;;;;;;;11.73;9.52;;;5.00;99.90;;;;;;5013186;28;20201;-51
2021/12/04 07:57:28;;;;;;;13.00;9.80;;;4.60;99.90;;;;;;5013364;28;20248;-50
2021/12/04 07:59:55;;;;;;;11.98;8.82;;;4.60;99.90;;;;;;5012797;28;20668;-51
2021/12/04 08:02:22;;;;;;;11.02;9.40;;;4.40;99.90;;;;;;5012932;28;20202;-51
2021/12/04 08:04:48;;;;;;;12.05;9.38;;;4.30;99.90;;;;;;5012963;28;20194;-51
2021/12/04 08:07:15;;;;;;;12.95;9.50;;;4.50;99.90;;;;;;5013062;28;20225;-51
2021/12/04 08:09:43;;;;;;;13.73;10.00;;;4.40;99.90;;;;;;5012623;28;20205;-51
2021/12/04 08:12:10;;;;;;;12.85;8.60;;;4.40;99.90;;;;;;5012916;28;20623;-51
2021/12/04 08:14:37;;;;;;;13.60;9.20;;;4.20;99.90;;;;;;5012773;28;20201;-50
2021/12/04 08:17:04;;;;;;;9.60;8.10;;;4.10;99.90;;;;;;5012947;28;20204;-51
2021/12/04 08:19:30;;;;;;;11.20;9.35;;;4.70;99.90;;;;;;5012717;28;20689;-50
2021/12/04 08:21:57;;;;;;;10.68;8.80;;;4.40;99.90;;;;;;5012957;28;20193;-51
2021/12/04 08:24:24;;;;;;;12.85;10.50;;;4.70;99.90;;;;;;5012547;28;20197;-51
2021/12/04 08:26:52;;;;;;;10.05;8.45;;;4.50;99.90;;;;;;5012177;28;20217;-50
2021/12/04 08:29:19;;;;;;;14.27;8.88;;;4.50;99.90;;;;;;5012320;28;20667;-50
2021/12/04 08:31:47;;;;;;;12.05;10.02;;;4.80;99.90;;;;;;5012689;28;20194;-51
2021/12/04 08:34:13;;;;;;;14.13;8.45;;;4.60;99.90;;;;;;5012494;28;20284;-53
2021/12/04 08:36:40;;;;;;;11.90;9.70;;;4.70;99.90;;;;;;5011952;28;20224;-51
2021/12/04 08:39:07;;;;;;;14.57;10.43;;;4.70;99.90;;;;;;5011215;28;20221;-50
2021/12/04 08:41:34;;;;;;;13.35;10.40;;;4.60;99.90;;;;;;5012466;28;20201;-51
2021/12/04 08:44:02;;;;;;;10.73;8.98;;;4.60;99.90;;;;;;5012404;28;20208;-53
2021/12/04 08:46:29;;;;;;;10.35;8.57;;;4.40;99.90;;;;;;4994658;28;20216;-52
2021/12/04 08:48:56;;;;;;;13.07;9.57;;;4.50;99.90;;;;;;5012057;28;20229;-53
2021/12/04 08:51:24;;;;;;;12.23;8.73;;;4.80;99.90;;;;;;5012212;28;20202;-52
2021/12/04 08:53:51;;;;;;;14.43;9.52;;;5.00;99.90;;;;;;5012258;28;20209;-51
2021/12/04 08:56:18;;;;;;;15.68;9.30;;;4.80;99.90;;;;;;4994097;28;20201;-51
2021/12/04 08:58:45;;;;;;;13.02;9.27;;;4.80;99.90;;;;;;5011730;28;20226;-52
2021/12/04 09:01:23;;;;;;;14.32;10.02;;;4.90;99.90;;;;;;5012065;28;20205;-52
2021/12/04 09:03:52;;;;;;;13.48;10.88;;;4.90;99.90;;;;;;4994268;28;20209;-52
2021/12/04 09:06:20;;;;;;;13.05;9.10;;;4.30;99.90;;;;;;5011660;28;20208;-53
2021/12/04 09:08:47;;;;;;;11.60;9.65;;;4.00;99.90;;;;;;5011129;28;20220;-52
2021/12/04 09:11:18;;;;;;;15.70;9.40;;;5.40;99.90;;;;;;5012258;28;20220;-52
2021/12/04 09:13:46;;;;;;;15.27;9.48;;;5.00;99.90;;;;;;5011815;28;20197;-52
2021/12/04 09:16:16;;;;;;;12.50;10.20;;;5.00;99.90;;;;;;5011500;28;20205;-52
2021/12/04 09:18:43;;;;;;;15.93;10.50;;;5.30;99.90;;;;;;5011338;28;20706;-52
2021/12/04 09:21:11;;;;;;;14.57;9.85;;;5.30;99.90;;;;;;5011823;28;20432;-52
2021/12/04 09:23:40;;;;;;;16.70;11.00;;;4.80;99.90;;;;;;5011804;28;20194;-52
2021/12/04 09:26:11;;;;;;;14.27;10.02;;;4.90;99.90;;;;;;5011463;28;20198;-52
2021/12/04 09:28:45;;;;;;;13.88;10.20;;;4.80;99.90;;;;;;5011366;28;20252;-52
2021/12/04 09:31:25;;;;;;;16.30;10.02;;;5.00;99.90;;;;;;5012061;28;20647;-52
2021/12/04 09:34:17;;;;;;;14.90;11.15;;;5.30;99.90;;;;;;5011807;28;20204;-52
2021/12/04 09:36:59;;;;;;;17.13;9.80;;;5.00;99.90;;;;;;5011556;28;20202;-52
2021/12/04 10:04:24;;;;;;;14.55;12.10;;;5.10;99.90;;;;;;5002131;28;20212;-52
2021/12/04 10:18:46;;;;;;;17.57;11.63;;;5.00;99.90;;;;;;4953806;29;20239;-53
2021/12/04 10:24:10;;;;;;;16.02;11.40;;;5.10;99.90;;;;;;4995964;28;20456;-52
2021/12/04 10:35:10;;;;;;;19.60;12.60;;;4.70;99.90;;;;;;5014722;28;20240;-52
2021/12/04 10:37:49;;;;;;;17.38;13.32;;;4.90;99.90;;;;;;5014213;28;20214;-52
2021/12/04 10:40:18;;;;;;;15.95;12.93;;;5.00;99.90;;;;;;5014593;28;20221;-52
2021/12/04 10:42:50;;;;;;;17.88;12.18;;;4.90;99.90;;;;;;5014057;28;20213;-51
2021/12/04 10:45:17;;;;;;;13.57;11.25;;;5.20;99.90;;;;;;4996257;28;20651;-52
2021/12/04 10:47:56;;;;;;;13.70;11.95;;;5.20;99.90;;;;;;5013427;28;20776;-53
2021/12/04 10:50:31;;;;;;;14.90;11.30;;;5.30;99.90;;;;;;5014088;28;20225;-53
2021/12/04 10:53:00;;;;;;;14.05;12.65;;;5.00;99.90;;;;;;5014153;28;20454;-53
2021/12/04 10:55:33;;;;;;;15.20;12.60;;;5.30;99.90;;;;;;5014004;28;20229;-52
2021/12/04 11:01:02;;;;;;;17.15;12.18;;;5.10;99.90;;;;;;5013845;28;20773;-52
2021/12/04 11:20:22;;;;;;;11.95;10.73;;;4.90;99.90;;;;;;5012839;28;20975;-51
2021/12/04 11:23:07;;;;;;;13.03;11.47;;;5.60;99.90;;;;;;5013656;28;20742;-51
2021/12/04 11:26:05;;;;;;;12.70;11.23;;;5.40;99.90;;;;;;5013147;28;20445;-52
2021/12/04 11:28:49;;;;;;;12.87;11.60;;;5.00;99.90;;;;;;5013373;28;20632;-51
2021/12/04 11:37:06;;;;;;;13.20;10.80;;;5.50;99.90;;;;;;4977182;28;20240;-51
2021/12/04 11:39:52;;;;;;;12.35;11.05;;;5.40;99.90;;;;;;5012812;28;21034;-51
2021/12/04 11:42:27;;;;;;;12.13;10.82;;;5.60;99.90;;;;;;5013267;28;20201;-52
2021/12/04 11:45:08;;;;;;;12.55;10.40;;;5.70;99.90;;;;;;5013619;28;20523;-51
2021/12/04 11:47:38;;;;;;;11.60;10.40;;;5.80;99.90;;;;;;5013054;28;20275;-52
2021/12/04 11:50:16;;;;;;;11.90;10.40;;;5.40;99.90;;;;;;5012797;28;20926;-52
2021/12/04 11:52:46;;;;;;;11.80;10.60;;;5.90;99.90;;;;;;5012731;28;20226;-52
2021/12/04 11:55:13;;;;;;;11.85;10.65;;;5.90;99.90;;;;;;5012567;28;20210;-51
2021/12/04 11:57:41;;;;;;;11.67;10.47;;;5.80;99.90;;;;;;5011980;28;20226;-52
2021/12/04 12:00:14;;;;;;;14.20;12.20;;;5.60;99.90;;;;;;5013034;28;20512;-51
2021/12/04 12:02:42;;;;;;;12.77;11.38;;;5.20;99.90;;;;;;5012603;28;20507;-52
2021/12/04 12:05:16;;;;;;;13.07;11.30;;;5.90;99.90;;;;;;5012762;28;20204;-53
2021/12/04 12:07:51;;;;;;;13.30;11.20;;;5.30;99.90;;;;;;5012695;28;20436;-53
2021/12/04 12:10:18;;;;;;;15.10;12.23;;;5.70;99.90;;;;;;5012761;28;20910;-52
2021/12/04 12:12:48;;;;;;;13.63;11.60;;;5.80;99.90;;;;;;5012087;28;20422;-53
2021/12/04 12:15:28;;;;;;;13.90;12.50;;;5.50;99.90;;;;;;5012334;28;20441;-53
2021/12/04 12:17:55;;;;;;;16.83;12.63;;;5.50;99.90;;;;;;5011975;28;20458;-53
2021/12/04 12:20:37;;;;;;;15.63;12.50;;;5.60;99.90;;;;;;5012097;28;20941;-52
2021/12/04 12:23:07;;;;;;;15.40;13.80;;;5.80;99.90;;;;;;5012637;28;20904;-53
2021/12/04 12:25:49;;;;;;;15.00;13.37;;;5.90;99.90;;;;;;5012356;28;20838;-52
2021/12/04 12:34:00;;;;;;;13.60;11.80;;;6.20;99.90;;;;;;5012079;28;20530;-52
2021/12/04 12:36:28;;;;;;;12.77;11.37;;;5.80;99.90;;;;;;5012144;28;20908;-53
2021/12/04 12:38:57;;;;;;;13.17;11.80;;;5.70;99.90;;;;;;5010938;28;20707;-52
2021/12/04 12:41:27;;;;;;;17.63;13.33;;;5.70;99.90;;;;;;5011532;28;20442;-52
2021/12/04 12:44:03;;;;;;;14.47;11.97;;;5.70;99.90;;;;;;4994294;28;20435;-51
2021/12/04 12:46:36;;;;;;;11.63;10.40;;;6.30;99.90;;;;;;5011304;28;20415;-53
2021/12/04 12:49:04;;;;;;;14.15;12.65;;;5.90;99.90;;;;;;5010670;28;20439;-51
2021/12/04 12:51:34;;;;;;;14.77;12.80;;;5.80;99.90;;;;;;5011315;28;20758;-51
2021/12/04 12:54:04;;;;;;;13.90;11.55;;;6.00;99.90;;;;;;5011650;28;20415;-52
2021/12/04 12:56:33;;;;;;;15.97;14.13;;;5.90;99.90;;;;;;5011514;28;20579;-52
2021/12/04 12:59:04;;;;;;;14.97;12.50;;;6.10;99.90;;;;;;5011108;28;20452;-53
2021/12/04 13:12:49;;;;;;;12.00;10.50;;;6.00;99.90;;;;;;4992201;28;20408;-51
2021/12/04 13:15:29;;;;;;;11.20;9.60;;;5.80;99.90;;;;;;4992030;28;20441;-50
2021/12/04 13:18:08;;;;;;;12.90;11.00;;;5.60;99.90;;;;;;4991312;28;20532;-53
2021/12/04 13:20:35;;;;;;;12.53;9.03;;;5.90;99.90;;;;;;4991729;28;20483;-50
2021/12/04 13:23:09;;;;;;;11.40;10.20;;;5.20;99.90;;;;;;4991417;28;20400;-51
2021/12/04 13:25:36;;;;;;;10.73;9.63;;;5.80;99.90;;;;;;4996308;28;20809;-52
2021/12/04 13:30:28;;;;;;;10.77;9.33;;;5.70;99.90;;;;;;5011533;28;20491;-51
2021/12/04 13:32:56;;;;;;;10.98;9.88;;;5.50;99.90;;;;;;5010908;28;20224;-52
2021/12/04 13:35:25;;;;;;;12.73;9.23;;;5.80;99.90;;;;;;5011934;28;20549;-51
2021/12/04 13:38:00;;;;;;;9.63;8.63;;;5.50;99.90;;;;;;5010529;28;20572;-50
2021/12/04 13:40:28;;;;;;;10.95;9.40;;;5.80;99.90;;;;;;5011318;28;20221;-51
2021/12/04 13:42:55;;;;;;;10.60;9.50;;;5.80;99.90;;;;;;5011069;28;20267;-52
2021/12/04 13:45:22;;;;;;;10.10;9.10;;;5.60;99.90;;;;;;5011466;28;20437;-51
2021/12/04 13:47:53;;;;;;;11.52;10.32;;;5.70;99.90;;;;;;5029196;23;20586;-48
2021/12/04 13:53:15;;;;;;;11.03;9.70;;;5.90;99.90;;;;;;5031219;28;20515;-49
2021/12/04 13:55:46;;;;;;;12.23;10.20;;;5.80;99.90;;;;;;5029622;28;20452;-48
2021/12/04 13:58:12;;;;;;;14.03;11.07;;;5.60;99.90;;;;;;5030583;28;20532;-48
2021/12/04 14:00:39;;;;;;;17.03;12.57;;;5.80;99.90;;;;;;5031299;28;21014;-47
2021/12/04 14:03:06;;;;;;;15.87;12.17;;;5.60;99.90;;;;;;5030761;28;20415;-48
2021/12/04 14:05:34;;;;;;;13.32;10.98;;;5.60;99.90;;;;;;5031511;28;20436;-47
2021/12/04 14:08:03;;;;;;;14.47;12.13;;;5.70;99.90;;;;;;5030850;28;20222;-47
2021/12/04 14:10:32;;;;;;;14.93;12.83;;;5.90;99.90;;;;;;5031063;28;20437;-47
2021/12/04 14:13:00;;;;;;;15.33;12.40;;;5.60;99.90;;;;;;5029739;28;20459;-46
2021/12/04 14:15:28;;;;;;;16.57;13.67;;;5.60;99.90;;;;;;5032028;28;20416;-47
2021/12/04 14:17:59;;;;;;;15.50;13.73;;;5.60;99.90;;;;;;5029110;28;20458;-47
2021/12/04 14:20:27;;;;;;;17.38;13.50;;;5.70;99.90;;;;;;5030501;28;20459;-48
2021/12/04 14:22:58;;;;;;;16.80;13.30;;;5.70;99.90;;;;;;5029260;28;20202;-48
2021/12/04 14:25:26;;;;;;;15.03;13.47;;;5.80;99.90;;;;;;5030988;28;20679;-48
2021/12/04 14:27:54;;;;;;;15.10;12.10;;;5.70;99.90;;;;;;5030720;28;20486;-48
2021/12/04 14:30:25;;;;;;;16.87;12.30;;;5.80;99.90;;;;;;5030935;28;20410;-48
2021/12/04 14:32:55;;;;;;;18.88;13.63;;;5.80;99.90;;;;;;5030462;28;20510;-47
2021/12/04 14:35:23;;;;;;;22.57;15.07;;;5.90;99.90;;;;;;5030510;28;20472;-47
2021/12/04 14:37:52;;;;;;;19.83;15.97;;;5.70;99.90;;;;;;5032659;28;20521;-48
2021/12/04 14:40:23;;;;;;;22.70;18.50;;;5.80;99.90;;;;;;5034084;28;20494;-47
2021/12/04 14:42:51;;;;;;;20.20;15.80;;;5.60;99.90;;;;;;5034185;28;20428;-49
2021/12/04 14:45:21;;;;;;;17.10;15.30;;;5.70;99.90;;;;;;5034188;28;20953;-47
2021/12/04 14:47:51;;;;;;;16.10;13.93;;;5.60;99.90;;;;;;5033202;28;20874;-48
2021/12/04 14:50:20;;;;;;;18.47;14.97;;;5.60;99.90;;;;;;5034248;28;20506;-48
2021/12/04 14:52:50;;;;;;;20.80;15.07;;;5.60;99.90;;;;;;5033697;28;20521;-48
2021/12/04 14:55:21;;;;;;;20.00;17.80;;;5.20;99.90;;;;;;5034019;28;20463;-48
2021/12/04 14:57:48;;;;;;;17.67;15.77;;;5.50;99.90;;;;;;5033037;28;20669;-48
2021/12/04 15:00:18;;;;;;;18.43;16.17;;;5.70;99.90;;;;;;5033033;28;20781;-48
2021/12/04 15:02:51;;;;;;;20.13;16.40;;;5.60;99.90;;;;;;5033644;28;21163;-48
2021/12/04 15:05:30;;;;;;;18.47;16.47;;;5.10;99.90;;;;;;5034068;28;20411;-47
2021/12/04 15:08:05;;;;;;;20.40;16.73;;;5.60;99.90;;;;;;5034351;28;20470;-47
2021/12/04 15:10:34;;;;;;;23.80;17.97;;;5.60;99.90;;;;;;5035326;28;20443;-48
2021/12/04 15:13:01;;;;;;;18.20;15.80;;;5.40;99.90;;;;;;5033678;28;20431;-48